Time;durP1;ratioP1;P1;durP2;ratioP2;P2;SDS_P1;SDS_P2;PMS_P1;PMS_P2;Temp;Humidity;BMP_temperature;BMP_pressure;BME280_temperature;BME280_humidity;BME280_pressure;Samples;Min_cycle;Max_cycle;Signal;HPM_P1;HPM_P2
2023/02/09 00:00:26;;;;;;;;;;;;;;;;;;1043880;28;20384;-76
2023/02/09 00:00:57;;;;;;;;;;;;;;;;;;1039896;28;19980;-79
2023/02/09 00:01:28;;;;;;;;;;;;;;;;;;1043872;28;19999;-78
2023/02/09 00:01:59;;;;;;;;;;;;;;;;;;1039757;28;19913;-76
2023/02/09 00:02:32;;;;;;;;;;;;;;;;;;1039937;28;20040;-77
2023/02/09 00:03:03;;;;;;;;;;;;;;;;;;1039609;28;19914;-77
2023/02/09 00:03:34;;;;;;;;;;;;;;;;;;1045900;28;19912;-77
2023/02/09 00:04:05;;;;;;;;;;;;;;;;;;1048010;28;19911;-76
2023/02/09 00:04:36;;;;;;;;;;;;;;;;;;1043857;28;20373;-77
2023/02/09 00:05:06;;;;;;;;;;;;;;;;;;1041995;28;20446;-77
2023/02/09 00:05:37;;;;;;;;;;;;;;;;;;1041797;28;20062;-78
2023/02/09 00:06:08;;;;;;;;;;;;;;;;;;1043868;28;19909;-76
2023/02/09 00:06:39;;;;;;;;;;;;;;;;;;1043615;28;20012;-78
2023/02/09 00:07:10;;;;;;;;;;;;;;;;;;1038530;28;20320;-77
2023/02/09 00:07:41;;;;;;;;;;;;;;;;;;1035990;28;19909;-77
2023/02/09 00:08:12;;;;;;;;;;;;;;;;;;1040061;28;20769;-78
2023/02/09 00:08:43;;;;;;;;;;;;;;;;;;1039769;28;19905;-78
2023/02/09 00:09:13;;;;;;;;;;;;;;;;;;1039685;28;20195;-76
2023/02/09 00:09:44;;;;;;;;;;;;;;;;;;1039921;28;20124;-78
2023/02/09 00:10:18;;;;;;;;;;;;;;;;;;1039674;28;19909;-77
2023/02/09 00:10:49;;;;;;;;;;;;;;;;;;1036178;28;20464;-77
2023/02/09 00:11:20;;;;;;;;;;;;;;;;;;1035686;28;20487;-77
2023/02/09 00:13:29;;;;;;;;;;;;;;;;;;1044169;28;20010;-77
2023/02/09 00:14:00;;;;;;;;;;;;;;;;;;1039614;28;20033;-77
2023/02/09 00:14:31;;;;;;;;;;;;;;;;;;1039662;28;20304;-77
2023/02/09 00:15:02;;;;;;;;;;;;;;;;;;1039872;28;19909;-77
2023/02/09 00:15:33;;;;;;;;;;;;;;;;;;1039597;28;19955;-78
2023/02/09 00:16:04;;;;;;;;;;;;;;;;;;1039953;28;19905;-77
2023/02/09 00:16:35;;;;;;;;;;;;;;;;;;1039774;28;19913;-78
2023/02/09 00:17:06;;;;;;;;;;;;;;;;;;1044117;28;19909;-77
2023/02/09 00:17:36;;;;;;;;;;;;;;;;;;1039269;28;19980;-77
2023/02/09 00:18:07;;;;;;;;;;;;;;;;;;1039890;28;20527;-77
2023/02/09 00:18:38;;;;;;;;;;;;;;;;;;1039595;28;19909;-77
2023/02/09 00:19:09;;;;;;;;;;;;;;;;;;1040155;28;20356;-77
2023/02/09 00:19:40;;;;;;;;;;;;;;;;;;1043643;28;19908;-78
2023/02/09 00:20:11;;;;;;;;;;;;;;;;;;1044339;28;19915;-77
2023/02/09 00:20:42;;;;;;;;;;;;;;;;;;1039058;28;19913;-75
2023/02/09 00:21:13;;;;;;;;;;;;;;;;;;1039809;28;19917;-76
2023/02/09 00:21:43;;;;;;;;;;;;;;;;;;1039765;28;19909;-76
2023/02/09 00:22:14;;;;;;;;;;;;;;;;;;1036030;28;19941;-76
2023/02/09 00:22:45;;;;;;;;;;;;;;;;;;1035338;28;19992;-78
2023/02/09 00:23:16;;;;;;;;;;;;;;;;;;1035689;28;20254;-76
2023/02/09 00:23:47;;;;;;;;;;;;;;;;;;1035606;28;19988;-77
2023/02/09 00:24:18;;;;;;;;;;;;;;;;;;1037754;28;20443;-75
2023/02/09 00:24:49;;;;;;;;;;;;;;;;;;1040191;28;20643;-76
2023/02/09 00:25:20;;;;;;;;;;;;;;;;;;1039918;28;19952;-77
2023/02/09 00:25:50;;;;;;;;;;;;;;;;;;1039680;28;19909;-75
2023/02/09 00:26:21;;;;;;;;;;;;;;;;;;1043830;28;20011;-76
2023/02/09 00:26:52;;;;;;;;;;;;;;;;;;1039496;28;19910;-76
2023/02/09 00:27:23;;;;;;;;;;;;;;;;;;1039861;28;19909;-77
2023/02/09 00:27:54;;;;;;;;;;;;;;;;;;1042772;28;19948;-76
2023/02/09 00:28:25;;;;;;;;;;;;;;;;;;1039661;28;20328;-76
2023/02/09 00:28:56;;;;;;;;;;;;;;;;;;1039433;28;19909;-77
2023/02/09 00:29:26;;;;;;;;;;;;;;;;;;1040086;28;20691;-77
2023/02/09 00:29:57;;;;;;;;;;;;;;;;;;1043759;28;19909;-77
2023/02/09 00:30:28;;;;;;;;;;;;;;;;;;1039704;28;19916;-75
2023/02/09 00:30:59;;;;;;;;;;;;;;;;;;1039521;28;19909;-76
2023/02/09 00:31:30;;;;;;;;;;;;;;;;;;1039614;28;20395;-76
2023/02/09 00:32:01;;;;;;;;;;;;;;;;;;1039841;28;19914;-78
2023/02/09 00:32:32;;;;;;;;;;;;;;;;;;1039868;28;20453;-78
2023/02/09 00:33:03;;;;;;;;;;;;;;;;;;1043879;28;19916;-76
2023/02/09 00:33:33;;;;;;;;;;;;;;;;;;1043707;28;20057;-79
2023/02/09 00:34:04;;;;;;;;;;;;;;;;;;1044245;28;20004;-76
2023/02/09 00:34:35;;;;;;;;;;;;;;;;;;1041060;28;19931;-77
2023/02/09 00:35:06;;;;;;;;;;;;;;;;;;1035861;28;20337;-77
2023/02/09 00:35:37;;;;;;;;;;;;;;;;;;1031341;28;20339;-77
2023/02/09 00:36:08;;;;;;;;;;;;;;;;;;1031903;28;20432;-77
2023/02/09 00:36:39;;;;;;;;;;;;;;;;;;1035565;28;19940;-77
2023/02/09 00:37:10;;;;;;;;;;;;;;;;;;1040005;28;19925;-77
2023/02/09 00:37:41;;;;;;;;;;;;;;;;;;1039476;28;19909;-77
2023/02/09 00:38:11;;;;;;;;;;;;;;;;;;1039771;28;19909;-76
2023/02/09 00:38:42;;;;;;;;;;;;;;;;;;1035222;28;19910;-77
2023/02/09 00:39:13;;;;;;;;;;;;;;;;;;1036243;28;19937;-76
2023/02/09 00:39:44;;;;;;;;;;;;;;;;;;1039281;28;20576;-78
2023/02/09 00:40:15;;;;;;;;;;;;;;;;;;1040061;28;20380;-78
2023/02/09 00:40:46;;;;;;;;;;;;;;;;;;1043498;28;20446;-77
2023/02/09 00:41:17;;;;;;;;;;;;;;;;;;1043660;28;19909;-76
2023/02/09 00:42:05;;;;;;;;;;;;;;;;;;1039409;28;20051;-75
2023/02/09 00:42:36;;;;;;;;;;;;;;;;;;1039405;28;20253;-76
2023/02/09 00:43:07;;;;;;;;;;;;;;;;;;1039733;28;20356;-76
2023/02/09 00:43:38;;;;;;;;;;;;;;;;;;1039450;28;20043;-76
2023/02/09 00:44:09;;;;;;;;;;;;;;;;;;1039731;28;20283;-76
2023/02/09 00:44:40;;;;;;;;;;;;;;;;;;1036869;28;19914;-76
2023/02/09 00:45:11;;;;;;;;;;;;;;;;;;1034780;28;20012;-76
2023/02/09 00:45:42;;;;;;;;;;;;;;;;;;1031422;28;19917;-76
2023/02/09 00:46:13;;;;;;;;;;;;;;;;;;1035607;28;20538;-77
2023/02/09 00:46:44;;;;;;;;;;;;;;;;;;1039806;28;19909;-78
2023/02/09 00:47:15;;;;;;;;;;;;;;;;;;1043759;28;19939;-76
2023/02/09 00:47:45;;;;;;;;;;;;;;;;;;1039731;28;19917;-76
2023/02/09 00:48:16;;;;;;;;;;;;;;;;;;1036394;28;19960;-75
2023/02/09 00:48:47;;;;;;;;;;;;;;;;;;1035657;28;19921;-75
2023/02/09 00:49:18;;;;;;;;;;;;;;;;;;1035553;28;20364;-76
2023/02/09 00:49:49;;;;;;;;;;;;;;;;;;1039524;28;19913;-76
2023/02/09 00:50:20;;;;;;;;;;;;;;;;;;1039472;28;19913;-75
2023/02/09 00:50:51;;;;;;;;;;;;;;;;;;1039788;28;19917;-76
2023/02/09 00:51:21;;;;;;;;;;;;;;;;;;1039333;28;19916;-77
2023/02/09 00:51:52;;;;;;;;;;;;;;;;;;1038699;28;19913;-77
2023/02/09 00:52:23;;;;;;;;;;;;;;;;;;1031445;28;19914;-77
2023/02/09 00:52:54;;;;;;;;;;;;;;;;;;1035815;28;20028;-78
2023/02/09 00:53:25;;;;;;;;;;;;;;;;;;1035188;28;19951;-76
2023/02/09 00:53:56;;;;;;;;;;;;;;;;;;1035529;28;20107;-76
2023/02/09 00:54:29;;;;;;;;;;;;;;;;;;1035497;28;20505;-77
2023/02/09 00:55:00;;;;;;;;;;;;;;;;;;1038658;28;20355;-77
2023/02/09 00:55:31;;;;;;;;;;;;;;;;;;1043456;28;20384;-77
2023/02/09 00:56:02;;;;;;;;;;;;;;;;;;1043836;28;19913;-76
2023/02/09 00:56:33;;;;;;;;;;;;;;;;;;1043542;28;19913;-77
2023/02/09 00:57:04;;;;;;;;;;;;;;;;;;1043941;28;19913;-77
2023/02/09 00:57:35;;;;;;;;;;;;;;;;;;1039284;28;20007;-77
2023/02/09 00:58:05;;;;;;;;;;;;;;;;;;1039567;28;19913;-77
2023/02/09 00:58:36;;;;;;;;;;;;;;;;;;1039435;28;19948;-77
2023/02/09 00:59:07;;;;;;;;;;;;;;;;;;1040118;28;19964;-77
2023/02/09 00:59:39;;;;;;;;;;;;;;;;;;1043490;28;20359;-77
2023/02/09 01:00:10;;;;;;;;;;;;;;;;;;1044193;28;19913;-77
2023/02/09 01:00:41;;;;;;;;;;;;;;;;;;1043316;28;19913;-77
2023/02/09 01:01:12;;;;;;;;;;;;;;;;;;1039738;28;19915;-77
2023/02/09 01:01:43;;;;;;;;;;;;;;;;;;1039076;28;19971;-77
2023/02/09 01:02:14;;;;;;;;;;;;;;;;;;1039744;28;19920;-77
2023/02/09 01:02:44;;;;;;;;;;;;;;;;;;1039329;28;20466;-77
2023/02/09 01:03:15;;;;;;;;;;;;;;;;;;1040048;28;19916;-77
2023/02/09 01:03:46;;;;;;;;;;;;;;;;;;1039472;28;19909;-76
2023/02/09 01:04:17;;;;;;;;;;;;;;;;;;1043661;28;19909;-77
2023/02/09 01:04:48;;;;;;;;;;;;;;;;;;1043242;28;19932;-75
2023/02/09 01:05:19;;;;;;;;;;;;;;;;;;1039859;28;20354;-76
2023/02/09 01:05:50;;;;;;;;;;;;;;;;;;1039017;28;19909;-76
2023/02/09 01:06:21;;;;;;;;;;;;;;;;;;1039461;28;19917;-76
2023/02/09 01:06:51;;;;;;;;;;;;;;;;;;1043452;28;19932;-77
2023/02/09 01:07:22;;;;;;;;;;;;;;;;;;1043335;28;20513;-76
2023/02/09 01:07:53;;;;;;;;;;;;;;;;;;1043258;28;19909;-77
2023/02/09 01:08:24;;;;;;;;;;;;;;;;;;1043449;28;19931;-76
2023/02/09 01:08:55;;;;;;;;;;;;;;;;;;1043177;28;19908;-76
2023/02/09 01:09:26;;;;;;;;;;;;;;;;;;1039358;28;20011;-75
2023/02/09 01:09:58;;;;;;;;;;;;;;;;;;1039035;28;20399;-76
2023/02/09 01:10:29;;;;;;;;;;;;;;;;;;1035426;28;19910;-77
2023/02/09 01:11:00;;;;;;;;;;;;;;;;;;1039319;28;19909;-76
2023/02/09 01:11:31;;;;;;;;;;;;;;;;;;1035673;28;19909;-77
2023/02/09 01:12:02;;;;;;;;;;;;;;;;;;1039133;28;19909;-77
2023/02/09 01:12:33;;;;;;;;;;;;;;;;;;1039355;28;19963;-77
2023/02/09 01:13:04;;;;;;;;;;;;;;;;;;1039551;28;19951;-78
2023/02/09 01:13:34;;;;;;;;;;;;;;;;;;1038865;28;19909;-77
2023/02/09 01:14:05;;;;;;;;;;;;;;;;;;1039498;28;19952;-77
2023/02/09 01:14:36;;;;;;;;;;;;;;;;;;1043558;28;19916;-78
2023/02/09 01:15:07;;;;;;;;;;;;;;;;;;1043366;28;19916;-78
2023/02/09 01:15:38;;;;;;;;;;;;;;;;;;1043314;28;20425;-77
2023/02/09 01:16:09;;;;;;;;;;;;;;;;;;1039475;28;20288;-77
2023/02/09 01:16:40;;;;;;;;;;;;;;;;;;1039136;28;20331;-77
2023/02/09 01:17:11;;;;;;;;;;;;;;;;;;1039264;28;19948;-77
2023/02/09 01:17:42;;;;;;;;;;;;;;;;;;1039172;28;19951;-77
2023/02/09 01:18:13;;;;;;;;;;;;;;;;;;1039545;28;19909;-77
2023/02/09 01:18:43;;;;;;;;;;;;;;;;;;1039133;28;19913;-77
2023/02/09 01:19:14;;;;;;;;;;;;;;;;;;1039462;28;20365;-77
2023/02/09 01:19:45;;;;;;;;;;;;;;;;;;1039250;28;19996;-77
2023/02/09 01:20:16;;;;;;;;;;;;;;;;;;1039813;28;20242;-77
2023/02/09 01:20:47;;;;;;;;;;;;;;;;;;1038721;28;19915;-77
2023/02/09 01:21:18;;;;;;;;;;;;;;;;;;1039568;28;19975;-75
2023/02/09 01:21:49;;;;;;;;;;;;;;;;;;1039212;28;20396;-77
2023/02/09 01:22:19;;;;;;;;;;;;;;;;;;1039696;28;19940;-76
2023/02/09 01:22:50;;;;;;;;;;;;;;;;;;1039322;28;20395;-76
2023/02/09 01:23:21;;;;;;;;;;;;;;;;;;1039794;28;19905;-76
2023/02/09 01:23:52;;;;;;;;;;;;;;;;;;1043335;28;19913;-76
2023/02/09 01:24:23;;;;;;;;;;;;;;;;;;1043629;28;19912;-76
2023/02/09 01:24:54;;;;;;;;;;;;;;;;;;1039098;28;20030;-78
2023/02/09 01:25:25;;;;;;;;;;;;;;;;;;1039520;28;20315;-78
2023/02/09 01:25:56;;;;;;;;;;;;;;;;;;1039103;28;19987;-77
2023/02/09 01:26:26;;;;;;;;;;;;;;;;;;1039551;28;19913;-76
2023/02/09 01:26:57;;;;;;;;;;;;;;;;;;1043292;28;20586;-76
2023/02/09 01:27:28;;;;;;;;;;;;;;;;;;1043491;28;19943;-76
2023/02/09 01:27:59;;;;;;;;;;;;;;;;;;1043205;28;19913;-76
2023/02/09 01:28:30;;;;;;;;;;;;;;;;;;1039091;28;19913;-77
2023/02/09 01:29:01;;;;;;;;;;;;;;;;;;1035027;28;20521;-77
2023/02/09 01:29:32;;;;;;;;;;;;;;;;;;1035152;28;19914;-77
2023/02/09 01:30:03;;;;;;;;;;;;;;;;;;1039080;28;20284;-76
2023/02/09 01:30:33;;;;;;;;;;;;;;;;;;1039142;28;20369;-76
2023/02/09 01:31:04;;;;;;;;;;;;;;;;;;1037466;28;19951;-76
2023/02/09 01:31:35;;;;;;;;;;;;;;;;;;1035102;28;19936;-76
2023/02/09 01:32:06;;;;;;;;;;;;;;;;;;1035034;28;20000;-78
2023/02/09 01:32:37;;;;;;;;;;;;;;;;;;1035355;28;19917;-76
2023/02/09 01:33:08;;;;;;;;;;;;;;;;;;1039127;28;19913;-77
2023/02/09 01:33:39;;;;;;;;;;;;;;;;;;1039234;28;20197;-76
2023/02/09 01:34:10;;;;;;;;;;;;;;;;;;1039230;28;20673;-76
2023/02/09 01:34:41;;;;;;;;;;;;;;;;;;1042485;28;19912;-76
2023/02/09 01:35:11;;;;;;;;;;;;;;;;;;1039141;28;20611;-77
2023/02/09 01:35:42;;;;;;;;;;;;;;;;;;1039298;28;19913;-78
2023/02/09 01:36:13;;;;;;;;;;;;;;;;;;1038827;28;19978;-78
2023/02/09 01:36:44;;;;;;;;;;;;;;;;;;1035290;28;19909;-78
2023/02/09 01:37:15;;;;;;;;;;;;;;;;;;1035040;28;19920;-78
2023/02/09 01:37:46;;;;;;;;;;;;;;;;;;1038679;28;19939;-76
2023/02/09 01:38:17;;;;;;;;;;;;;;;;;;1038686;28;20402;-77
2023/02/09 01:38:48;;;;;;;;;;;;;;;;;;1035360;28;19914;-77
2023/02/09 01:39:18;;;;;;;;;;;;;;;;;;1039066;28;19944;-77
2023/02/09 01:39:49;;;;;;;;;;;;;;;;;;1028696;28;20325;-77
2023/02/09 01:40:20;;;;;;;;;;;;;;;;;;1035042;28;20087;-78
2023/02/09 01:40:51;;;;;;;;;;;;;;;;;;1031049;28;19910;-76
2023/02/09 01:41:22;;;;;;;;;;;;;;;;;;1035068;28;20495;-77
2023/02/09 01:41:53;;;;;;;;;;;;;;;;;;1031268;28;19910;-77
2023/02/09 01:42:24;;;;;;;;;;;;;;;;;;1035382;28;19909;-76
2023/02/09 01:42:55;;;;;;;;;;;;;;;;;;1035388;28;20295;-78
2023/02/09 01:43:25;;;;;;;;;;;;;;;;;;1035216;28;20305;-76
2023/02/09 01:43:56;;;;;;;;;;;;;;;;;;1035258;28;19948;-77
2023/02/09 01:44:27;;;;;;;;;;;;;;;;;;1035529;28;20366;-77
2023/02/09 01:44:58;;;;;;;;;;;;;;;;;;1035006;28;19918;-77
2023/02/09 01:45:29;;;;;;;;;;;;;;;;;;1035301;28;19913;-78
2023/02/09 01:46:00;;;;;;;;;;;;;;;;;;1035303;28;19949;-77
2023/02/09 01:46:31;;;;;;;;;;;;;;;;;;1035512;28;19921;-77
2023/02/09 01:47:01;;;;;;;;;;;;;;;;;;1039388;28;19913;-77
2023/02/09 01:47:32;;;;;;;;;;;;;;;;;;1039902;28;19964;-77
2023/02/09 01:48:03;;;;;;;;;;;;;;;;;;1039455;28;20284;-77
2023/02/09 01:48:34;;;;;;;;;;;;;;;;;;1039769;28;19960;-77
2023/02/09 01:49:05;;;;;;;;;;;;;;;;;;1035241;28;19913;-77
2023/02/09 01:49:37;;;;;;;;;;;;;;;;;;1035273;28;19913;-77
2023/02/09 01:50:07;;;;;;;;;;;;;;;;;;1035172;28;19914;-77
2023/02/09 01:50:38;;;;;;;;;;;;;;;;;;1035163;28;19952;-77
2023/02/09 01:51:09;;;;;;;;;;;;;;;;;;1035171;28;19913;-77
2023/02/09 01:51:40;;;;;;;;;;;;;;;;;;1035206;28;19913;-77
2023/02/09 01:52:11;;;;;;;;;;;;;;;;;;1035190;28;19914;-78
2023/02/09 01:52:42;;;;;;;;;;;;;;;;;;1035455;28;19914;-77
2023/02/09 01:53:13;;;;;;;;;;;;;;;;;;1035169;28;19913;-77
2023/02/09 01:53:44;;;;;;;;;;;;;;;;;;1034947;28;19972;-77
2023/02/09 01:54:15;;;;;;;;;;;;;;;;;;1031143;28;19922;-77
2023/02/09 01:54:46;;;;;;;;;;;;;;;;;;1035250;28;19919;-77
2023/02/09 01:55:17;;;;;;;;;;;;;;;;;;1035120;28;20376;-77
2023/02/09 01:55:47;;;;;;;;;;;;;;;;;;1035294;28;19971;-76
2023/02/09 01:56:18;;;;;;;;;;;;;;;;;;1035030;28;20394;-77
2023/02/09 01:56:49;;;;;;;;;;;;;;;;;;1033190;28;19913;-77
2023/02/09 01:57:20;;;;;;;;;;;;;;;;;;1030615;28;20316;-78
2023/02/09 01:57:51;;;;;;;;;;;;;;;;;;1031383;28;20000;-77
2023/02/09 01:58:22;;;;;;;;;;;;;;;;;;1035160;28;19910;-78
2023/02/09 01:58:53;;;;;;;;;;;;;;;;;;1031554;28;19913;-77
2023/02/09 01:59:24;;;;;;;;;;;;;;;;;;1035237;28;20609;-77
2023/02/09 01:59:54;;;;;;;;;;;;;;;;;;1035191;28;19914;-78
2023/02/09 02:00:25;;;;;;;;;;;;;;;;;;1035005;28;19967;-77
2023/02/09 02:00:56;;;;;;;;;;;;;;;;;;1035370;28;20011;-78
2023/02/09 02:01:27;;;;;;;;;;;;;;;;;;1034997;28;19913;-78
2023/02/09 02:01:58;;;;;;;;;;;;;;;;;;1031498;28;20499;-78
2023/02/09 02:02:29;;;;;;;;;;;;;;;;;;1035162;28;19913;-78
2023/02/09 02:03:00;;;;;;;;;;;;;;;;;;1035417;28;19913;-77
2023/02/09 02:03:31;;;;;;;;;;;;;;;;;;1034949;28;20016;-78
2023/02/09 02:04:02;;;;;;;;;;;;;;;;;;1035054;28;19913;-77
2023/02/09 02:04:32;;;;;;;;;;;;;;;;;;1031171;28;19914;-79
2023/02/09 02:05:03;;;;;;;;;;;;;;;;;;1031506;28;19945;-77
2023/02/09 02:05:34;;;;;;;;;;;;;;;;;;1035511;28;19914;-78
2023/02/09 02:06:05;;;;;;;;;;;;;;;;;;1039719;28;19920;-78
2023/02/09 02:06:36;;;;;;;;;;;;;;;;;;1039288;28;20475;-77
2023/02/09 02:07:07;;;;;;;;;;;;;;;;;;1039237;28;19913;-77
2023/02/09 02:07:38;;;;;;;;;;;;;;;;;;1035184;28;20004;-77
2023/02/09 02:08:08;;;;;;;;;;;;;;;;;;1035136;28;19914;-77
2023/02/09 02:08:39;;;;;;;;;;;;;;;;;;1035101;28;19914;-77
2023/02/09 02:09:10;;;;;;;;;;;;;;;;;;1038306;28;20264;-77
2023/02/09 02:09:42;;;;;;;;;;;;;;;;;;1037651;28;19920;-78
2023/02/09 02:10:12;;;;;;;;;;;;;;;;;;1034941;28;20372;-77
2023/02/09 02:10:43;;;;;;;;;;;;;;;;;;1035609;28;20400;-76
2023/02/09 02:11:15;;;;;;;;;;;;;;;;;;1039483;28;19949;-78
2023/02/09 02:11:46;;;;;;;;;;;;;;;;;;1039747;28;20241;-77
2023/02/09 02:12:17;;;;;;;;;;;;;;;;;;1039190;28;20284;-78
2023/02/09 02:12:48;;;;;;;;;;;;;;;;;;1039242;28;20059;-76
2023/02/09 02:13:19;;;;;;;;;;;;;;;;;;1035148;28;19936;-76
2023/02/09 02:13:50;;;;;;;;;;;;;;;;;;1035327;28;20329;-77
2023/02/09 02:14:21;;;;;;;;;;;;;;;;;;1035012;28;19944;-77
2023/02/09 02:14:51;;;;;;;;;;;;;;;;;;1035197;28;19914;-77
2023/02/09 02:15:22;;;;;;;;;;;;;;;;;;1035546;28;19961;-77
2023/02/09 02:15:53;;;;;;;;;;;;;;;;;;1042002;28;19963;-77
2023/02/09 02:16:24;;;;;;;;;;;;;;;;;;1043132;28;19948;-77
2023/02/09 02:16:57;;;;;;;;;;;;;;;;;;1035388;28;19917;-78
2023/02/09 02:17:28;;;;;;;;;;;;;;;;;;1034942;28;19936;-78
2023/02/09 02:17:59;;;;;;;;;;;;;;;;;;1035522;28;19909;-77
2023/02/09 02:18:30;;;;;;;;;;;;;;;;;;1035564;28;20399;-77
2023/02/09 02:19:00;;;;;;;;;;;;;;;;;;1035311;28;19940;-77
2023/02/09 02:19:31;;;;;;;;;;;;;;;;;;1035104;28;19918;-76
2023/02/09 02:20:03;;;;;;;;;;;;;;;;;;1035382;28;20397;-77
2023/02/09 02:20:34;;;;;;;;;;;;;;;;;;1035078;28;19914;-77
2023/02/09 02:21:05;;;;;;;;;;;;;;;;;;1043081;28;19917;-77
2023/02/09 02:21:36;;;;;;;;;;;;;;;;;;1043510;28;20000;-78
2023/02/09 02:22:07;;;;;;;;;;;;;;;;;;1039474;28;19920;-77
2023/02/09 02:22:37;;;;;;;;;;;;;;;;;;1036969;28;19917;-78
2023/02/09 02:23:09;;;;;;;;;;;;;;;;;;1032885;28;20497;-77
2023/02/09 02:23:40;;;;;;;;;;;;;;;;;;1031264;28;19926;-77
2023/02/09 02:24:10;;;;;;;;;;;;;;;;;;1036295;28;19914;-78
2023/02/09 02:24:41;;;;;;;;;;;;;;;;;;1035085;28;20404;-78
2023/02/09 02:25:12;;;;;;;;;;;;;;;;;;1035400;28;20000;-77
2023/02/09 02:25:43;;;;;;;;;;;;;;;;;;1035067;28;19909;-78
2023/02/09 02:26:14;;;;;;;;;;;;;;;;;;1035121;28;19914;-78
2023/02/09 02:26:45;;;;;;;;;;;;;;;;;;1035154;28;20007;-78
2023/02/09 02:27:16;;;;;;;;;;;;;;;;;;1039189;28;19996;-78
2023/02/09 02:27:47;;;;;;;;;;;;;;;;;;1032650;28;20296;-78
2023/02/09 02:28:17;;;;;;;;;;;;;;;;;;1035102;28;20020;-78
2023/02/09 02:28:48;;;;;;;;;;;;;;;;;;1035109;28;19917;-77
2023/02/09 02:29:19;;;;;;;;;;;;;;;;;;1035532;28;20004;-79
2023/02/09 02:29:50;;;;;;;;;;;;;;;;;;1039531;28;20406;-77
2023/02/09 02:30:21;;;;;;;;;;;;;;;;;;1039377;28;19913;-77
2023/02/09 02:30:52;;;;;;;;;;;;;;;;;;1039297;28;20391;-78
2023/02/09 02:31:23;;;;;;;;;;;;;;;;;;1039386;28;19932;-78
2023/02/09 02:31:53;;;;;;;;;;;;;;;;;;1039087;28;19913;-78
2023/02/09 02:32:24;;;;;;;;;;;;;;;;;;1034370;28;19944;-77
2023/02/09 02:32:55;;;;;;;;;;;;;;;;;;1035182;28;20292;-77
2023/02/09 02:33:26;;;;;;;;;;;;;;;;;;1035142;28;19913;-77
2023/02/09 02:33:57;;;;;;;;;;;;;;;;;;1035456;28;20405;-77
2023/02/09 02:34:29;;;;;;;;;;;;;;;;;;1039027;28;19995;-77
2023/02/09 02:35:00;;;;;;;;;;;;;;;;;;1035384;28;20396;-78
2023/02/09 02:35:31;;;;;;;;;;;;;;;;;;1035231;28;20394;-77
2023/02/09 02:36:01;;;;;;;;;;;;;;;;;;1035296;28;20008;-77
2023/02/09 02:36:32;;;;;;;;;;;;;;;;;;1035180;28;20292;-77
2023/02/09 02:37:03;;;;;;;;;;;;;;;;;;1039320;28;19913;-77
2023/02/09 02:37:34;;;;;;;;;;;;;;;;;;1039094;28;20001;-76
2023/02/09 02:38:05;;;;;;;;;;;;;;;;;;1035135;28;19913;-77
2023/02/09 02:38:36;;;;;;;;;;;;;;;;;;1034989;28;20220;-77
2023/02/09 02:39:07;;;;;;;;;;;;;;;;;;1035550;28;19913;-77
2023/02/09 02:39:38;;;;;;;;;;;;;;;;;;1034880;28;19920;-78
2023/02/09 02:40:08;;;;;;;;;;;;;;;;;;1035573;28;20446;-78
2023/02/09 02:40:39;;;;;;;;;;;;;;;;;;1034846;28;19917;-78
2023/02/09 02:41:10;;;;;;;;;;;;;;;;;;1035249;28;20351;-78
2023/02/09 02:42:47;;;;;;;;;;;;;;;;;;1027872;28;19916;-77
2023/02/09 02:43:18;;;;;;;;;;;;;;;;;;1027297;28;19911;-77
2023/02/09 02:43:49;;;;;;;;;;;;;;;;;;1030894;28;20299;-76
2023/02/09 02:44:20;;;;;;;;;;;;;;;;;;1032832;28;19945;-77
2023/02/09 02:44:51;;;;;;;;;;;;;;;;;;1031057;28;19914;-77
2023/02/09 02:45:22;;;;;;;;;;;;;;;;;;1035553;28;19941;-76
2023/02/09 02:45:52;;;;;;;;;;;;;;;;;;1034536;28;19989;-77
2023/02/09 02:46:23;;;;;;;;;;;;;;;;;;1031311;28;19914;-78
2023/02/09 02:46:54;;;;;;;;;;;;;;;;;;1031147;28;19920;-77
2023/02/09 02:47:25;;;;;;;;;;;;;;;;;;1035600;28;19910;-77
2023/02/09 02:47:56;;;;;;;;;;;;;;;;;;1039064;28;20693;-77
2023/02/09 02:48:27;;;;;;;;;;;;;;;;;;1039460;28;19913;-76
2023/02/09 02:48:58;;;;;;;;;;;;;;;;;;1034783;28;20055;-77
2023/02/09 02:49:30;;;;;;;;;;;;;;;;;;1033725;28;20005;-76
2023/02/09 02:50:01;;;;;;;;;;;;;;;;;;1035205;28;19914;-76
2023/02/09 02:50:31;;;;;;;;;;;;;;;;;;1035639;28;19924;-77
2023/02/09 02:51:02;;;;;;;;;;;;;;;;;;1034848;28;20420;-76
2023/02/09 02:51:33;;;;;;;;;;;;;;;;;;1035206;28;19921;-77
2023/02/09 02:52:04;;;;;;;;;;;;;;;;;;1035228;28;20353;-77
2023/02/09 02:52:35;;;;;;;;;;;;;;;;;;1035531;28;19948;-77
2023/02/09 02:53:06;;;;;;;;;;;;;;;;;;1043069;28;20007;-77
2023/02/09 02:53:37;;;;;;;;;;;;;;;;;;1035149;28;19917;-78
2023/02/09 02:54:07;;;;;;;;;;;;;;;;;;1034968;28;19914;-77
2023/02/09 02:54:38;;;;;;;;;;;;;;;;;;1035146;28;20570;-77
2023/02/09 02:55:09;;;;;;;;;;;;;;;;;;1035093;28;20008;-77
2023/02/09 02:55:40;;;;;;;;;;;;;;;;;;1035108;28;20601;-77
2023/02/09 02:56:11;;;;;;;;;;;;;;;;;;1035246;28;19921;-77
2023/02/09 02:56:42;;;;;;;;;;;;;;;;;;1035163;28;19914;-77
2023/02/09 02:57:13;;;;;;;;;;;;;;;;;;1035049;28;20422;-77
2023/02/09 02:57:44;;;;;;;;;;;;;;;;;;1035109;28;19976;-76
2023/02/09 02:58:14;;;;;;;;;;;;;;;;;;1034957;28;20328;-77
2023/02/09 02:58:45;;;;;;;;;;;;;;;;;;1035182;28;19918;-77
2023/02/09 02:59:16;;;;;;;;;;;;;;;;;;1034905;28;19920;-78
2023/02/09 02:59:47;;;;;;;;;;;;;;;;;;1031959;28;20354;-77
2023/02/09 03:00:18;;;;;;;;;;;;;;;;;;1030962;28;20464;-77
2023/02/09 03:00:49;;;;;;;;;;;;;;;;;;1031375;28;19941;-77
2023/02/09 03:01:20;;;;;;;;;;;;;;;;;;1033255;28;20308;-78
2023/02/09 03:01:51;;;;;;;;;;;;;;;;;;1035135;28;19914;-77
2023/02/09 03:02:22;;;;;;;;;;;;;;;;;;1031132;28;19917;-78
2023/02/09 03:02:53;;;;;;;;;;;;;;;;;;1030898;28;20500;-77
2023/02/09 03:03:24;;;;;;;;;;;;;;;;;;1031213;28;19910;-78
2023/02/09 03:03:54;;;;;;;;;;;;;;;;;;1031399;28;20474;-78
2023/02/09 03:04:25;;;;;;;;;;;;;;;;;;1035406;28;20048;-77
2023/02/09 03:04:56;;;;;;;;;;;;;;;;;;1039131;28;20292;-77
2023/02/09 03:05:27;;;;;;;;;;;;;;;;;;1035341;28;19909;-76
2023/02/09 03:05:58;;;;;;;;;;;;;;;;;;1034853;28;19920;-78
2023/02/09 03:06:29;;;;;;;;;;;;;;;;;;1035194;28;19932;-77
2023/02/09 03:07:00;;;;;;;;;;;;;;;;;;1035461;28;19937;-78
2023/02/09 03:07:31;;;;;;;;;;;;;;;;;;1039237;28;19920;-77
2023/02/09 03:08:02;;;;;;;;;;;;;;;;;;1035673;28;19971;-78
2023/02/09 03:08:33;;;;;;;;;;;;;;;;;;1038269;28;19983;-77
2023/02/09 03:09:04;;;;;;;;;;;;;;;;;;1035856;28;20396;-77
2023/02/09 03:09:35;;;;;;;;;;;;;;;;;;1036309;28;19910;-76
2023/02/09 03:10:06;;;;;;;;;;;;;;;;;;1035728;28;19910;-78
2023/02/09 03:10:37;;;;;;;;;;;;;;;;;;1035855;28;19940;-76
2023/02/09 03:11:08;;;;;;;;;;;;;;;;;;1035890;28;20032;-76
2023/02/09 03:11:38;;;;;;;;;;;;;;;;;;1038452;28;20461;-77
2023/02/09 03:12:09;;;;;;;;;;;;;;;;;;1043555;28;19909;-78
2023/02/09 03:12:40;;;;;;;;;;;;;;;;;;1039165;28;19909;-78
2023/02/09 03:13:11;;;;;;;;;;;;;;;;;;1040291;28;19915;-77
2023/02/09 03:13:42;;;;;;;;;;;;;;;;;;1039824;28;20038;-77
2023/02/09 03:14:13;;;;;;;;;;;;;;;;;;1040117;28;19909;-77
2023/02/09 03:14:44;;;;;;;;;;;;;;;;;;1040014;28;19916;-77
2023/02/09 03:15:14;;;;;;;;;;;;;;;;;;1039926;28;19936;-77
2023/02/09 03:15:45;;;;;;;;;;;;;;;;;;1040433;28;19955;-77
2023/02/09 03:16:16;;;;;;;;;;;;;;;;;;1040265;28;19955;-77
2023/02/09 03:16:47;;;;;;;;;;;;;;;;;;1040321;28;19919;-78
2023/02/09 03:17:18;;;;;;;;;;;;;;;;;;1040364;28;20438;-77
2023/02/09 03:17:49;;;;;;;;;;;;;;;;;;1035891;28;19960;-77
2023/02/09 03:18:20;;;;;;;;;;;;;;;;;;1035900;28;19959;-77
2023/02/09 03:18:51;;;;;;;;;;;;;;;;;;1035932;28;20367;-77
2023/02/09 03:19:22;;;;;;;;;;;;;;;;;;1035698;28;19933;-77
2023/02/09 03:19:53;;;;;;;;;;;;;;;;;;1035921;28;19910;-78
2023/02/09 03:20:24;;;;;;;;;;;;;;;;;;1035838;28;19916;-77
2023/02/09 03:20:54;;;;;;;;;;;;;;;;;;1035643;28;19909;-77
2023/02/09 03:21:25;;;;;;;;;;;;;;;;;;1035761;28;19909;-77
2023/02/09 03:21:56;;;;;;;;;;;;;;;;;;1035786;28;19977;-76
2023/02/09 03:22:27;;;;;;;;;;;;;;;;;;1035882;28;20372;-76
2023/02/09 03:22:58;;;;;;;;;;;;;;;;;;1036122;28;20394;-76
2023/02/09 03:23:29;;;;;;;;;;;;;;;;;;1035582;28;20564;-76
2023/02/09 03:24:00;;;;;;;;;;;;;;;;;;1036016;28;20357;-77
2023/02/09 03:24:31;;;;;;;;;;;;;;;;;;1035880;28;19918;-77
2023/02/09 03:25:02;;;;;;;;;;;;;;;;;;1031781;28;19922;-76
2023/02/09 03:25:32;;;;;;;;;;;;;;;;;;1031958;28;19920;-77
2023/02/09 03:26:03;;;;;;;;;;;;;;;;;;1035893;28;20384;-77
2023/02/09 03:26:34;;;;;;;;;;;;;;;;;;1033181;28;19921;-78
2023/02/09 03:27:05;;;;;;;;;;;;;;;;;;1034962;28;19919;-77
2023/02/09 03:27:36;;;;;;;;;;;;;;;;;;1035770;28;19909;-78
2023/02/09 03:28:07;;;;;;;;;;;;;;;;;;1036304;28;20641;-77
2023/02/09 03:28:38;;;;;;;;;;;;;;;;;;1032684;28;20353;-77
2023/02/09 03:29:09;;;;;;;;;;;;;;;;;;1032193;28;19913;-77
2023/02/09 03:29:40;;;;;;;;;;;;;;;;;;1035953;28;19925;-77
2023/02/09 03:30:11;;;;;;;;;;;;;;;;;;1036190;28;19921;-77
2023/02/09 03:30:43;;;;;;;;;;;;;;;;;;1040032;28;19909;-77
2023/02/09 03:31:14;;;;;;;;;;;;;;;;;;1039957;28;19955;-77
2023/02/09 03:31:45;;;;;;;;;;;;;;;;;;1036007;28;19988;-76
2023/02/09 03:32:16;;;;;;;;;;;;;;;;;;1035717;28;19910;-76
2023/02/09 03:32:47;;;;;;;;;;;;;;;;;;1036033;28;19916;-77
2023/02/09 03:33:20;;;;;;;;;;;;;;;;;;1035778;28;19913;-77
2023/02/09 03:33:51;;;;;;;;;;;;;;;;;;1036596;28;20315;-78
2023/02/09 03:34:22;;;;;;;;;;;;;;;;;;1035696;28;20268;-77